createdAt,value
2022-09-15T00:02:00.232Z,75.46
2022-09-15T00:05:16.014Z,76.26
2022-09-15T00:08:32.089Z,76.93
2022-09-15T00:11:44.135Z,77.85
2022-09-15T00:15:00.080Z,78.29
2022-09-15T00:18:09.167Z,79.01
2022-09-15T00:21:23.103Z,78.59
2022-09-15T00:24:31.828Z,78.64
2022-09-15T00:27:41.053Z,78.86
2022-09-15T00:30:59.134Z,79.21
2022-09-15T00:34:19.075Z,79.00
2022-09-15T00:37:21.370Z,79.29
2022-09-15T00:40:36.060Z,79.09
2022-09-15T00:44:01.262Z,79.05
2022-09-15T00:47:19.679Z,79.11
2022-09-15T00:50:29.308Z,79.15
2022-09-15T00:53:45.095Z,79.21
2022-09-15T00:56:52.076Z,79.30
2022-09-15T01:00:12.053Z,79.58
2022-09-15T01:03:21.122Z,80.46
2022-09-15T01:06:36.207Z,81.02
2022-09-15T01:09:59.177Z,81.81
2022-09-15T01:13:12.175Z,82.59
2022-09-15T01:16:40.032Z,82.87
2022-09-15T01:20:27.087Z,83.53
2022-09-15T01:23:55.116Z,84.33
2022-09-15T01:27:43.837Z,84.71
2022-09-15T01:31:11.183Z,84.71
2022-09-15T01:34:24.152Z,85.03
2022-09-15T01:37:47.119Z,84.85
2022-09-15T01:40:55.639Z,85.16
2022-09-15T01:44:22.162Z,84.73
2022-09-15T01:47:41.132Z,84.60
2022-09-15T01:50:48.412Z,84.19
2022-09-15T01:54:08.132Z,84.38
2022-09-15T01:57:10.098Z,84.71
2022-09-15T02:00:25.130Z,84.22
2022-09-15T02:03:51.180Z,83.55
2022-09-15T02:07:08.055Z,83.22
2022-09-15T02:10:32.114Z,83.28
2022-09-15T02:13:57.987Z,83.30
2022-09-15T02:17:09.471Z,83.57
2022-09-15T02:20:25.139Z,83.66
2022-09-15T02:23:41.238Z,84.36
2022-09-15T02:27:00.208Z,84.67
2022-09-15T02:30:12.308Z,84.66
2022-09-15T02:33:26.161Z,84.51
2022-09-15T02:36:42.139Z,84.56
2022-09-15T02:39:55.425Z,84.53
2022-09-15T02:43:08.131Z,84.31
2022-09-15T02:46:28.160Z,84.36
2022-09-15T02:49:37.225Z,84.24
2022-09-15T02:52:46.703Z,84.33
2022-09-15T02:56:01.159Z,83.90
2022-09-15T02:59:03.640Z,83.74
2022-09-15T03:02:19.194Z,83.67
2022-09-15T03:05:30.081Z,82.97
2022-09-15T03:08:39.153Z,83.18
2022-09-15T03:11:48.032Z,82.82
2022-09-15T03:14:57.230Z,82.69
2022-09-15T03:18:12.171Z,82.06
2022-09-15T03:21:28.223Z,82.25
2022-09-15T03:24:30.259Z,82.07
2022-09-15T03:27:46.186Z,81.92
2022-09-15T03:30:55.409Z,81.35
2022-09-15T03:34:04.206Z,80.68
2022-09-15T03:37:13.067Z,81.00
2022-09-15T03:40:29.249Z,80.91
2022-09-15T03:43:39.187Z,80.91
2022-09-15T03:46:54.175Z,82.00
2022-09-15T03:50:03.212Z,83.07
2022-09-15T03:53:19.248Z,83.58
2022-09-15T03:56:37.284Z,83.25
2022-09-15T03:59:39.319Z,83.20
2022-09-15T04:02:55.182Z,83.69
2022-09-15T04:06:04.259Z,83.28
2022-09-15T04:09:13.192Z,83.01
2022-09-15T04:12:28.203Z,82.54
2022-09-15T04:15:44.224Z,82.25
2022-09-15T04:18:53.239Z,81.95
2022-09-15T04:22:02.155Z,81.54
2022-09-15T04:25:11.272Z,81.57
2022-09-15T04:28:20.460Z,81.43
2022-09-15T04:31:35.248Z,81.52
2022-09-15T04:34:44.219Z,81.21
2022-09-15T04:37:54.347Z,81.00
2022-09-15T04:41:10.211Z,80.88
2022-09-15T04:44:18.651Z,80.75
2022-09-15T04:47:33.219Z,80.77
2022-09-15T04:50:35.357Z,80.93
2022-09-15T04:53:51.267Z,81.09
2022-09-15T04:57:06.350Z,81.51
2022-09-15T05:00:17.225Z,81.67
2022-09-15T05:03:35.464Z,81.96
2022-09-15T05:06:51.271Z,82.16
2022-09-15T05:09:53.428Z,82.37
2022-09-15T05:13:09.271Z,82.59
2022-09-15T05:16:22.005Z,82.65
2022-09-15T05:19:31.352Z,82.99
2022-09-15T05:22:46.260Z,83.32
2022-09-15T05:26:05.250Z,83.76
2022-09-15T05:29:20.495Z,83.92
2022-09-15T05:32:36.386Z,84.29
2022-09-15T05:35:38.611Z,84.84
2022-09-15T05:38:54.313Z,85.21
2022-09-15T05:42:03.130Z,85.47
2022-09-15T05:45:25.258Z,85.55
2022-09-15T05:48:41.357Z,85.78
2022-09-15T05:51:50.311Z,85.87
2022-09-15T05:55:06.276Z,85.39
2022-09-15T05:58:08.707Z,84.66
2022-09-15T06:01:27.534Z,82.40
2022-09-15T06:04:36.423Z,80.09
2022-09-15T06:07:46.355Z,80.74
2022-09-15T06:11:01.272Z,80.65
2022-09-15T06:14:10.308Z,82.63
2022-09-15T06:17:26.268Z,82.16
2022-09-15T06:20:42.332Z,81.74
2022-09-15T06:23:50.047Z,82.61
2022-09-15T06:27:05.310Z,83.21
2022-09-15T06:30:16.101Z,82.61
2022-09-15T06:33:24.390Z,82.74
2022-09-15T06:36:33.560Z,82.12
2022-09-15T06:39:42.313Z,82.93
2022-09-15T06:42:57.566Z,80.59
2022-09-15T06:46:16.363Z,81.45
2022-09-15T06:49:18.830Z,80.47
2022-09-15T06:55:52.535Z,79.49
2022-09-15T06:59:08.355Z,81.71
2022-09-15T07:02:10.681Z,81.92
2022-09-15T07:05:26.552Z,81.23
2022-09-15T07:08:42.482Z,80.96
2022-09-15T07:11:58.344Z,80.90
2022-09-15T07:15:00.557Z,80.25
2022-09-15T07:18:15.353Z,80.62
2022-09-15T07:21:20.130Z,80.48
2022-09-15T07:24:36.352Z,78.77
2022-09-15T07:27:45.347Z,80.24
2022-09-15T07:30:54.423Z,79.19
2022-09-15T07:34:03.628Z,78.50
2022-09-15T07:37:12.777Z,76.28
2022-09-15T07:40:21.361Z,75.88
2022-09-15T07:43:37.378Z,73.37
2022-09-15T07:46:54.419Z,73.11
2022-09-15T07:50:03.342Z,71.89
2022-09-15T07:53:12.312Z,70.72
2022-09-15T07:56:30.349Z,69.80
2022-09-15T07:59:32.537Z,68.79
2022-09-15T08:02:54.457Z,68.40
2022-09-15T08:06:03.719Z,67.53
2022-09-15T08:09:12.496Z,67.13
2022-09-15T08:12:21.407Z,66.11
2022-09-15T08:15:30.368Z,64.56
2022-09-15T08:18:42.959Z,63.69
2022-09-15T08:21:58.384Z,62.68
2022-09-15T08:25:14.387Z,60.68
2022-09-15T08:28:23.537Z,57.47
2022-09-15T08:31:32.507Z,57.89
2022-09-15T08:34:41.603Z,58.57
2022-09-15T08:37:50.383Z,58.16
2022-09-15T08:41:05.360Z,57.82
2022-09-15T08:44:52.464Z,57.90
2022-09-15T08:47:58.630Z,56.57
2022-09-15T08:51:22.402Z,56.99
2022-09-15T08:54:40.391Z,56.94
2022-09-15T08:57:49.404Z,58.02
2022-09-15T09:01:24.039Z,58.22
2022-09-15T09:04:55.387Z,58.59
2022-09-15T09:08:31.371Z,58.38
2022-09-15T09:11:50.489Z,57.85
2022-09-15T09:15:27.483Z,56.38
2022-09-15T09:18:54.493Z,54.45
2022-09-15T09:22:18.503Z,53.42
2022-09-15T09:25:28.686Z,52.93
2022-09-15T09:28:49.931Z,50.89
2022-09-15T09:32:05.463Z,51.95
2022-09-15T09:35:36.480Z,50.04
2022-09-15T09:38:48.149Z,47.05
2022-09-15T09:41:56.496Z,47.12
2022-09-15T09:45:20.405Z,46.60
2022-09-15T09:48:29.908Z,46.18
2022-09-15T09:51:42.490Z,45.32
2022-09-15T09:55:03.720Z,44.86
2022-09-15T09:58:25.441Z,45.34
2022-09-15T10:01:27.884Z,44.99
2022-09-15T10:04:45.530Z,44.67
2022-09-15T10:07:54.472Z,45.17
2022-09-15T10:11:15.460Z,45.41
2022-09-15T10:14:35.787Z,45.86
2022-09-15T10:17:49.527Z,46.08
2022-09-15T10:21:06.557Z,46.26
2022-09-15T10:24:28.528Z,46.37
2022-09-15T10:27:43.552Z,46.16
2022-09-15T10:31:11.531Z,46.20
2022-09-15T10:34:31.608Z,45.47
2022-09-15T10:38:03.488Z,45.42
2022-09-15T10:41:21.915Z,44.77
2022-09-15T10:44:50.572Z,44.87
2022-09-15T10:48:26.544Z,45.46
2022-09-15T10:51:43.815Z,45.18
2022-09-15T10:55:36.757Z,44.55
2022-09-15T10:59:15.544Z,45.49
2022-09-15T11:02:48.560Z,46.32
2022-09-15T11:06:12.768Z,47.05
2022-09-15T11:09:40.496Z,47.34
2022-09-15T11:12:58.524Z,46.90
2022-09-15T11:16:43.554Z,45.21
2022-09-15T11:20:15.490Z,44.90
2022-09-15T11:23:37.624Z,44.86
2022-09-15T11:27:01.516Z,46.02
2022-09-15T11:30:22.508Z,48.74
2022-09-15T11:33:40.093Z,51.53
2022-09-15T11:36:55.576Z,52.36
2022-09-15T11:40:22.573Z,53.83
2022-09-15T11:43:51.511Z,55.65
2022-09-15T11:47:30.611Z,56.75
2022-09-15T11:50:52.530Z,57.31
2022-09-15T11:54:15.532Z,57.95
2022-09-15T11:57:25.455Z,56.74
2022-09-15T12:00:48.526Z,56.92
2022-09-15T12:04:10.530Z,54.49
2022-09-15T12:07:18.604Z,55.16
2022-09-15T12:10:46.570Z,56.94
2022-09-15T12:13:55.550Z,57.88
2022-09-15T12:17:06.334Z,57.90
2022-09-15T12:20:33.603Z,58.43
2022-09-15T12:23:42.103Z,58.83
2022-09-15T12:26:57.568Z,60.01
2022-09-15T12:30:06.803Z,60.19
2022-09-15T12:33:49.792Z,59.89
2022-09-15T12:37:17.544Z,58.42
2022-09-15T12:40:39.795Z,60.15
2022-09-15T12:44:05.572Z,58.67
2022-09-15T12:47:34.592Z,58.94
2022-09-15T12:50:40.778Z,59.98
2022-09-15T12:53:59.552Z,59.53
2022-09-15T12:57:30.563Z,60.92
2022-09-15T13:00:49.897Z,61.01
2022-09-15T13:04:29.583Z,60.04
2022-09-15T13:12:02.638Z,89.03
2022-09-15T13:15:21.618Z,100.00
2022-09-15T13:18:32.213Z,100.00
2022-09-15T13:21:52.676Z,100.00
2022-09-15T13:25:21.604Z,100.00
2022-09-15T13:28:40.607Z,100.00
2022-09-15T13:32:02.881Z,100.00
2022-09-15T13:35:33.623Z,100.00
2022-09-15T13:39:16.608Z,100.00
2022-09-15T13:42:45.141Z,100.00
2022-09-15T13:46:12.649Z,100.00
2022-09-15T13:49:50.669Z,100.00
2022-09-15T13:53:17.891Z,100.00
2022-09-15T13:56:35.636Z,100.00
2022-09-15T13:59:50.598Z,100.00
2022-09-15T14:02:57.929Z,100.00
2022-09-15T14:06:27.647Z,100.00
2022-09-15T14:09:38.682Z,100.00
2022-09-15T14:13:05.640Z,100.00
2022-09-15T14:16:22.794Z,100.00
2022-09-15T14:19:42.635Z,100.00
2022-09-15T14:22:57.636Z,100.00
2022-09-15T14:26:01.265Z,100.00
2022-09-15T14:29:25.692Z,100.00
2022-09-15T14:32:45.665Z,100.00
2022-09-15T14:35:54.719Z,100.00
2022-09-15T14:39:19.691Z,100.00
2022-09-15T14:42:35.015Z,100.00
2022-09-15T14:46:02.974Z,100.00
2022-09-15T14:49:15.149Z,100.00
2022-09-15T14:52:32.619Z,100.00
2022-09-15T14:56:04.357Z,100.00
2022-09-15T14:59:28.698Z,100.00
2022-09-15T15:02:57.635Z,100.00
2022-09-15T15:06:30.083Z,100.00
2022-09-15T15:09:51.686Z,100.00
2022-09-15T15:13:05.877Z,100.00
2022-09-15T15:16:34.709Z,100.00
2022-09-15T15:19:53.894Z,100.00
2022-09-15T15:23:11.896Z,100.00
2022-09-15T15:26:39.675Z,100.00
2022-09-15T15:29:54.701Z,100.00
2022-09-15T15:33:19.552Z,100.00
2022-09-15T15:36:36.655Z,100.00
2022-09-15T15:39:38.575Z,100.00
2022-09-15T15:43:01.732Z,100.00
2022-09-15T15:46:16.739Z,100.00
2022-09-15T15:49:26.671Z,100.00
2022-09-15T15:52:35.391Z,100.00
2022-09-15T15:55:47.674Z,100.00
2022-09-15T15:59:02.666Z,100.00
2022-09-15T16:02:13.159Z,100.00
2022-09-15T16:05:21.746Z,100.00
2022-09-15T16:08:40.711Z,100.00
2022-09-15T16:15:16.725Z,100.00
2022-09-15T16:18:25.428Z,100.00
2022-09-15T16:21:45.734Z,100.00
2022-09-15T16:24:47.639Z,100.00
2022-09-15T16:28:02.745Z,100.00
2022-09-15T16:31:04.636Z,100.00
2022-09-15T16:34:22.755Z,100.00
2022-09-15T16:37:31.315Z,100.00
2022-09-15T16:40:40.699Z,100.00
2022-09-15T16:43:49.657Z,100.00
2022-09-15T16:47:04.944Z,100.00
2022-09-15T16:50:07.496Z,100.00
2022-09-15T16:53:25.760Z,100.00
2022-09-15T16:56:34.419Z,100.00
2022-09-15T16:59:42.713Z,100.00
2022-09-15T17:02:51.346Z,100.00
2022-09-15T17:06:01.823Z,100.00
2022-09-15T17:09:10.487Z,100.00
2022-09-15T17:12:31.760Z,100.00
2022-09-15T17:15:42.772Z,100.00
2022-09-15T17:18:57.736Z,100.00
2022-09-15T17:21:59.763Z,100.00
2022-09-15T17:25:32.728Z,100.00
2022-09-15T17:28:47.807Z,100.00
2022-09-15T17:31:55.739Z,100.00
2022-09-15T17:35:21.296Z,100.00
2022-09-15T17:38:35.798Z,100.00
2022-09-15T17:41:37.835Z,100.00
2022-09-15T17:44:52.730Z,100.00
2022-09-15T17:48:03.444Z,100.00
2022-09-15T17:51:13.754Z,100.00
2022-09-15T17:54:23.147Z,100.00
2022-09-15T17:57:37.743Z,100.00
2022-09-15T18:00:48.748Z,100.00
2022-09-15T18:04:03.754Z,100.00
2022-09-15T18:07:15.785Z,100.00
2022-09-15T18:10:31.847Z,100.00
2022-09-15T18:13:47.092Z,100.00
2022-09-15T18:16:55.807Z,100.00
2022-09-15T18:20:11.772Z,100.00
2022-09-15T18:23:29.842Z,100.00
2022-09-15T18:26:31.743Z,100.00
2022-09-15T18:29:47.770Z,100.00
2022-09-15T18:32:57.177Z,100.00
2022-09-15T18:36:05.780Z,100.00
2022-09-15T18:39:20.778Z,100.00
2022-09-15T18:42:22.728Z,100.00
2022-09-15T18:45:37.801Z,100.00
2022-09-15T18:48:52.824Z,100.00
2022-09-15T18:52:00.817Z,100.00
2022-09-15T18:55:14.211Z,100.00
2022-09-15T18:58:28.803Z,100.00
2022-09-15T19:01:37.627Z,100.00
2022-09-15T19:04:48.776Z,100.00
2022-09-15T19:08:03.824Z,100.00
2022-09-15T19:11:25.828Z,100.00
2022-09-15T19:14:35.849Z,100.00
2022-09-15T19:17:44.982Z,100.00
2022-09-15T19:20:54.772Z,100.00
2022-09-15T19:24:03.536Z,100.00
2022-09-15T19:27:13.805Z,100.00
2022-09-15T19:30:22.617Z,100.00
2022-09-15T19:33:37.853Z,100.00
2022-09-15T19:36:39.606Z,99.46
2022-09-15T19:39:55.832Z,99.68
2022-09-15T19:42:57.723Z,100.00
2022-09-15T19:46:23.940Z,99.11
2022-09-15T19:49:32.672Z,98.37
2022-09-15T19:52:41.823Z,96.87
2022-09-15T19:55:52.075Z,97.26
2022-09-15T19:59:06.808Z,97.88
2022-09-15T20:02:16.940Z,98.17
2022-09-15T20:05:25.448Z,98.41
2022-09-15T20:08:33.849Z,98.33
2022-09-15T20:11:42.520Z,98.42
2022-09-15T20:15:03.839Z,98.95
2022-09-15T20:18:12.924Z,99.05
2022-09-15T20:21:49.181Z,100.00
2022-09-15T20:24:58.476Z,100.00
2022-09-15T20:28:06.928Z,100.00
2022-09-15T20:31:18.351Z,100.00
2022-09-15T20:34:32.904Z,100.00
2022-09-15T20:37:40.852Z,100.00
2022-09-15T20:40:59.880Z,100.00
2022-09-15T20:44:15.871Z,100.00
2022-09-15T20:47:17.943Z,100.00
2022-09-15T20:50:33.896Z,100.00
2022-09-15T20:53:36.138Z,99.52
2022-09-15T20:56:50.926Z,98.28
2022-09-15T21:00:05.918Z,98.05
2022-09-15T21:03:17.852Z,99.91
2022-09-15T21:06:34.876Z,100.00
2022-09-15T21:09:43.955Z,100.00
2022-09-15T21:12:51.902Z,99.25
2022-09-15T21:16:02.451Z,99.28
2022-09-15T21:19:10.919Z,99.15
2022-09-15T21:22:19.617Z,99.40
2022-09-15T21:25:33.921Z,99.75
2022-09-15T21:28:42.890Z,100.00
2022-09-15T21:31:51.547Z,98.42
2022-09-15T21:35:06.875Z,97.59
2022-09-15T21:38:08.693Z,97.91
2022-09-15T21:41:25.926Z,96.61
2022-09-15T21:44:33.935Z,96.69
2022-09-15T21:47:48.900Z,96.43
2022-09-15T21:50:57.752Z,96.27
2022-09-15T21:54:06.946Z,95.84
2022-09-15T21:57:15.533Z,95.69
2022-09-15T22:00:30.948Z,95.44
2022-09-15T22:03:32.666Z,95.69
2022-09-15T22:06:47.945Z,96.32
2022-09-15T22:09:57.852Z,96.90
2022-09-15T22:13:13.889Z,97.27
2022-09-15T22:16:30.973Z,96.58
2022-09-15T22:19:38.923Z,97.14
2022-09-15T22:22:53.894Z,97.09
2022-09-15T22:26:04.605Z,97.62
2022-09-15T22:29:13.892Z,97.95
2022-09-15T22:32:28.916Z,98.28
2022-09-15T22:35:37.485Z,99.98
2022-09-15T22:38:45.925Z,99.83
2022-09-15T22:42:00.923Z,99.46
2022-09-15T22:45:17.971Z,99.44
2022-09-15T22:48:19.719Z,99.12
2022-09-15T22:51:34.917Z,98.91
2022-09-15T22:54:37.041Z,99.34
2022-09-15T22:57:55.013Z,98.43
2022-09-15T23:01:13.004Z,98.07
2022-09-15T23:04:15.704Z,96.57
2022-09-15T23:07:29.945Z,96.44
2022-09-15T23:10:38.495Z,95.08
2022-09-15T23:13:53.933Z,94.36
2022-09-15T23:17:02.548Z,93.69
2022-09-15T23:20:11.946Z,92.32
2022-09-15T23:23:20.580Z,93.04
2022-09-15T23:26:34.952Z,92.69
2022-09-15T23:29:36.817Z,92.27
2022-09-15T23:32:51.993Z,91.68
2022-09-15T23:36:10.965Z,91.84
2022-09-15T23:39:18.979Z,90.80
2022-09-15T23:42:34.007Z,91.86
2022-09-15T23:45:36.117Z,90.34
2022-09-15T23:48:50.980Z,90.33
2022-09-15T23:51:59.857Z,89.84
2022-09-15T23:55:08.001Z,89.69
2022-09-15T23:58:23.995Z,89.71
